createdAt,value
2023-04-23T00:01:19.506Z,100100.09
2023-04-23T00:03:46.985Z,100100.22
2023-04-23T00:06:14.721Z,100096.12
2023-04-23T00:08:42.239Z,100091.53
2023-04-23T00:11:10.681Z,100093.31
2023-04-23T00:13:38.108Z,100093.34
2023-04-23T00:16:05.934Z,100093.75
2023-04-23T00:18:32.892Z,100093.94
2023-04-23T00:20:59.879Z,100097.81
2023-04-23T00:23:26.985Z,100091.63
2023-04-23T00:25:54.143Z,100087.44
2023-04-23T00:28:22.374Z,100094.41
2023-04-23T00:30:49.462Z,100086.69
2023-04-23T00:33:16.438Z,100083.06
2023-04-23T00:35:43.527Z,100087.56
2023-04-23T00:38:10.514Z,100086.41
2023-04-23T00:40:37.699Z,100081.03
2023-04-23T00:43:05.069Z,100081.78
2023-04-23T00:45:32.120Z,100086.25
2023-04-23T00:47:59.667Z,100087.22
2023-04-23T00:50:26.792Z,100086.41
2023-04-23T00:52:53.755Z,100084.81
2023-04-23T00:55:21.522Z,100083.00
2023-04-23T00:57:49.004Z,100080.69
2023-04-23T01:00:16.309Z,100074.41
2023-04-23T01:02:44.639Z,100075.13
2023-04-23T01:05:12.323Z,100077.91
2023-04-23T01:07:39.493Z,100081.28
2023-04-23T01:10:07.299Z,100068.09
2023-04-23T01:12:35.018Z,100072.28
2023-04-23T01:15:02.950Z,100072.53
2023-04-23T01:17:30.162Z,100068.44
2023-04-23T01:19:57.235Z,100063.87
2023-04-23T01:22:24.728Z,100070.28
2023-04-23T01:24:52.463Z,100073.25
2023-04-23T01:27:20.427Z,100074.87
2023-04-23T01:29:48.264Z,100069.62
2023-04-23T01:32:16.045Z,100075.88
2023-04-23T01:34:43.757Z,100079.44
2023-04-23T01:37:11.624Z,100073.28
2023-04-23T01:39:38.576Z,100067.25
2023-04-23T01:42:07.462Z,100073.53
2023-04-23T01:44:34.748Z,100070.97
2023-04-23T01:47:01.637Z,100068.94
2023-04-23T01:49:28.614Z,100069.97
2023-04-23T01:51:55.601Z,100064.25
2023-04-23T01:54:22.582Z,100068.94
2023-04-23T01:56:49.784Z,100070.31
2023-04-23T01:59:16.713Z,100073.66
2023-04-23T02:01:47.739Z,100060.38
2023-04-23T02:04:16.085Z,100064.78
2023-04-23T02:06:46.182Z,100061.28
2023-04-23T02:09:13.479Z,100053.44
2023-04-23T02:11:40.726Z,100056.59
2023-04-23T02:14:08.769Z,100049.44
2023-04-23T02:16:36.738Z,100051.13
2023-04-23T02:19:04.127Z,100053.75
2023-04-23T02:21:31.754Z,100050.28
2023-04-23T02:23:58.688Z,100049.72
2023-04-23T02:26:25.686Z,100054.97
2023-04-23T02:28:52.697Z,100053.28
2023-04-23T02:31:21.082Z,100056.41
2023-04-23T02:33:48.144Z,100057.37
2023-04-23T02:36:16.364Z,100058.28
2023-04-23T02:38:45.065Z,100060.28
2023-04-23T02:41:12.568Z,100053.81
2023-04-23T02:43:39.494Z,100048.38
2023-04-23T02:46:09.695Z,100047.34
2023-04-23T02:48:41.284Z,100045.91
2023-04-23T02:51:11.167Z,100049.16
2023-04-23T02:53:38.216Z,100050.03
2023-04-23T02:56:05.701Z,100041.19
2023-04-23T02:58:32.655Z,100041.91
2023-04-23T03:01:00.293Z,100043.63
2023-04-23T03:03:32.160Z,100041.00
2023-04-23T03:06:01.045Z,100043.63
2023-04-23T03:08:28.686Z,100037.34
2023-04-23T03:10:55.747Z,100037.56
2023-04-23T03:13:22.654Z,100043.59
2023-04-23T03:15:56.009Z,100039.56
2023-04-23T03:18:22.938Z,100038.31
2023-04-23T03:20:49.861Z,100044.09
2023-04-23T03:23:16.946Z,100039.34
2023-04-23T03:25:43.885Z,100040.06
2023-04-23T03:28:10.824Z,100040.19
2023-04-23T03:30:37.805Z,100034.13
2023-04-23T03:33:04.866Z,100042.78
2023-04-23T03:35:31.827Z,100032.47
2023-04-23T03:37:58.808Z,100038.56
2023-04-23T03:40:25.904Z,100044.78
2023-04-23T03:42:52.923Z,100044.66
2023-04-23T03:45:19.857Z,100045.50
2023-04-23T03:47:46.760Z,100044.69
2023-04-23T03:50:13.775Z,100037.63
2023-04-23T03:52:40.892Z,100041.06
2023-04-23T03:55:08.340Z,100038.69
2023-04-23T03:57:36.478Z,100040.22
2023-04-23T04:00:05.189Z,100047.37
2023-04-23T04:02:32.552Z,100042.03
2023-04-23T04:04:59.630Z,100035.78
2023-04-23T04:07:27.304Z,100041.53
2023-04-23T04:09:54.197Z,100036.87
2023-04-23T04:12:21.090Z,100041.28
2023-04-23T04:14:48.059Z,100044.16
2023-04-23T04:17:16.354Z,100041.72
2023-04-23T04:19:43.711Z,100045.25
2023-04-23T04:22:11.191Z,100046.34
2023-04-23T04:24:38.329Z,100049.88
2023-04-23T04:27:06.292Z,100043.78
2023-04-23T04:29:33.721Z,100039.53
2023-04-23T04:32:01.740Z,100052.78
2023-04-23T04:34:29.129Z,100053.84
2023-04-23T04:36:56.110Z,100051.00
2023-04-23T04:39:23.059Z,100058.97
2023-04-23T04:41:50.177Z,100047.41
2023-04-23T04:44:17.613Z,100057.87
2023-04-23T04:46:45.253Z,100063.94
2023-04-23T04:49:13.115Z,100055.00
2023-04-23T04:51:41.525Z,100053.66
2023-04-23T04:54:08.734Z,100060.91
2023-04-23T04:56:35.707Z,100067.06
2023-04-23T04:59:03.293Z,100070.63
2023-04-23T05:01:31.252Z,100066.75
2023-04-23T05:03:58.663Z,100067.44
2023-04-23T05:06:25.936Z,100056.59
2023-04-23T05:08:52.920Z,100054.91
2023-04-23T05:11:21.210Z,100058.09
2023-04-23T05:13:48.945Z,100047.72
2023-04-23T05:16:15.984Z,100049.91
2023-04-23T05:18:43.445Z,100042.12
2023-04-23T05:21:10.590Z,100041.81
2023-04-23T05:23:37.634Z,100037.94
2023-04-23T05:26:04.918Z,100040.66
2023-04-23T05:28:31.971Z,100033.81
2023-04-23T05:30:59.256Z,100032.06
2023-04-23T05:33:30.648Z,100033.28
2023-04-23T05:36:00.341Z,100038.44
2023-04-23T05:38:27.474Z,100035.41
2023-04-23T05:40:54.401Z,100038.94
2023-04-23T05:43:21.337Z,100037.13
2023-04-23T05:45:48.423Z,100040.41
2023-04-23T05:48:15.368Z,100030.25
2023-04-23T05:50:42.407Z,100037.13
2023-04-23T05:53:09.455Z,100035.00
2023-04-23T05:55:36.476Z,100029.63
2023-04-23T05:58:03.442Z,100027.37
2023-04-23T06:00:30.753Z,100030.87
2023-04-23T06:02:57.886Z,100039.19
2023-04-23T06:05:25.041Z,100041.22
2023-04-23T06:07:52.646Z,100030.37
2023-04-23T06:10:19.676Z,100032.03
2023-04-23T06:12:46.604Z,100036.19
2023-04-23T06:15:13.573Z,100037.28
2023-04-23T06:17:41.389Z,100037.28
2023-04-23T06:20:10.945Z,100030.41
2023-04-23T06:22:37.771Z,100037.50
2023-04-23T06:25:05.786Z,100039.22
2023-04-23T06:27:33.998Z,100037.63
2023-04-23T06:30:01.037Z,100029.53
2023-04-23T06:32:28.048Z,100032.94
2023-04-23T06:35:01.472Z,100031.88
2023-04-23T06:37:31.069Z,100028.47
2023-04-23T06:39:59.548Z,100039.72
2023-04-23T06:42:26.573Z,100032.88
2023-04-23T06:44:53.615Z,100032.03
2023-04-23T06:47:20.658Z,100028.69
2023-04-23T06:49:47.571Z,100034.19
2023-04-23T06:52:14.594Z,100039.22
2023-04-23T06:54:41.779Z,100033.44
2023-04-23T06:57:08.980Z,100038.88
2023-04-23T06:59:35.973Z,100033.91
2023-04-23T07:02:02.904Z,100030.53
2023-04-23T07:04:30.206Z,100026.97
2023-04-23T07:06:57.558Z,100023.44
2023-04-23T07:09:24.583Z,100018.91
2023-04-23T07:11:51.606Z,100025.06
2023-04-23T07:14:18.625Z,100018.59
2023-04-23T07:16:45.684Z,100019.75
2023-04-23T07:19:12.620Z,100010.56
2023-04-23T07:21:39.513Z,100013.69
2023-04-23T07:24:09.732Z,100016.13
2023-04-23T07:26:37.244Z,100015.84
2023-04-23T07:29:06.910Z,100004.84
2023-04-23T07:31:34.465Z,100008.84
2023-04-23T07:34:01.594Z,100002.87
2023-04-23T07:36:28.906Z,100011.44
2023-04-23T07:38:55.956Z,100006.00
2023-04-23T07:41:23.064Z,100004.31
2023-04-23T07:43:50.266Z,100010.09
2023-04-23T07:46:17.462Z,100009.87
2023-04-23T07:48:44.601Z,100009.94
2023-04-23T07:51:11.668Z,100009.00
2023-04-23T07:53:38.778Z,100010.78
2023-04-23T07:56:05.883Z,100000.91
2023-04-23T07:58:33.560Z,100012.84
2023-04-23T08:01:00.524Z,100013.63
2023-04-23T08:03:28.919Z,100014.94
2023-04-23T08:05:57.089Z,100013.75
2023-04-23T08:08:24.045Z,100011.25
2023-04-23T08:10:51.023Z,99999.06
2023-04-23T08:13:18.061Z,100005.03
2023-04-23T08:15:45.041Z,100009.31
2023-04-23T08:18:12.124Z,99998.91
2023-04-23T08:20:39.067Z,99993.75
2023-04-23T08:23:06.481Z,99992.16
2023-04-23T08:25:33.630Z,99999.84
2023-04-23T08:28:00.660Z,99990.31
2023-04-23T08:30:27.582Z,99987.44
2023-04-23T08:32:54.575Z,99988.66
2023-04-23T08:35:22.445Z,99980.09
2023-04-23T08:37:49.383Z,99982.78
2023-04-23T08:40:17.279Z,99984.34
2023-04-23T08:42:51.364Z,99987.22
2023-04-23T08:45:19.507Z,99987.84
2023-04-23T08:47:46.588Z,99989.59
2023-04-23T08:50:17.938Z,99983.69
2023-04-23T08:52:52.902Z,99974.78
2023-04-23T08:55:21.457Z,99971.75
2023-04-23T08:57:49.891Z,99976.25
2023-04-23T09:00:19.536Z,99971.91
2023-04-23T09:02:48.673Z,99969.22
2023-04-23T09:05:15.922Z,99963.81
2023-04-23T09:07:43.388Z,99961.50
2023-04-23T09:10:13.694Z,99973.62
2023-04-23T09:12:43.681Z,99970.56
2023-04-23T09:15:12.150Z,99980.13
2023-04-23T09:17:41.375Z,99965.94
2023-04-23T09:20:12.416Z,99977.69
2023-04-23T09:22:51.018Z,99957.28
2023-04-23T09:25:20.942Z,99963.16
2023-04-23T09:27:49.732Z,99958.25
2023-04-23T09:30:17.586Z,99959.78
2023-04-23T09:32:49.748Z,99939.72
2023-04-23T09:35:20.280Z,99945.09
2023-04-23T09:37:53.207Z,99942.56
2023-04-23T09:40:22.838Z,99954.66
2023-04-23T09:42:54.816Z,99941.88
2023-04-23T09:45:22.106Z,99937.72
2023-04-23T09:47:54.924Z,99939.97
2023-04-23T09:50:39.577Z,99941.47
2023-04-23T09:53:08.385Z,99936.31
2023-04-23T09:55:39.185Z,99927.16
2023-04-23T09:58:15.736Z,99930.28
2023-04-23T10:00:43.634Z,99926.66
2023-04-23T10:03:12.399Z,99925.44
2023-04-23T10:08:14.682Z,99920.91
2023-04-23T10:10:54.960Z,99914.12
2023-04-23T10:13:28.386Z,99906.56
2023-04-23T10:15:59.073Z,99905.69
2023-04-23T10:18:33.241Z,99907.00
2023-04-23T10:21:02.926Z,99898.38
2023-04-23T10:23:33.493Z,99900.50
2023-04-23T10:26:01.787Z,99903.84
2023-04-23T10:28:32.232Z,99894.44
2023-04-23T10:31:00.045Z,99902.63
2023-04-23T10:33:31.893Z,99900.00
2023-04-23T10:36:00.753Z,99893.97
2023-04-23T10:38:28.575Z,99900.31
2023-04-23T10:40:59.047Z,99881.19
2023-04-23T10:43:26.521Z,99878.41
2023-04-23T10:45:54.092Z,99890.44
2023-04-23T10:48:21.798Z,99875.09
2023-04-23T10:51:17.577Z,99888.88
2023-04-23T10:53:46.133Z,99878.50
2023-04-23T10:56:13.049Z,99881.84
2023-04-23T10:58:52.461Z,99872.75
2023-04-23T11:01:20.890Z,99874.38
2023-04-23T11:03:48.853Z,99870.41
2023-04-23T11:06:40.030Z,99860.22
2023-04-23T11:09:29.855Z,99855.09
2023-04-23T11:11:59.942Z,99860.78
2023-04-23T11:14:50.617Z,99847.91
2023-04-23T11:17:19.640Z,99861.50
2023-04-23T11:20:07.236Z,99863.44
2023-04-23T11:22:43.925Z,99854.38
2023-04-23T11:25:12.876Z,99865.56
2023-04-23T11:27:44.712Z,99844.34
2023-04-23T11:30:27.224Z,99856.31
2023-04-23T11:32:56.851Z,99859.91
2023-04-23T11:35:29.689Z,99853.28
2023-04-23T11:37:57.223Z,99871.37
2023-04-23T11:40:24.537Z,99861.69
2023-04-23T11:42:55.200Z,99850.72
2023-04-23T11:45:29.565Z,99858.03
2023-04-23T11:48:01.223Z,99845.50
2023-04-23T11:50:33.606Z,99852.09
2023-04-23T11:53:09.179Z,99842.38
2023-04-23T11:55:36.697Z,99839.53
2023-04-23T11:58:04.109Z,99832.59
2023-04-23T12:00:31.018Z,99840.31
2023-04-23T12:03:01.559Z,99833.53
2023-04-23T12:05:34.032Z,99837.34
2023-04-23T12:08:20.598Z,99826.03
2023-04-23T12:10:55.069Z,99829.41
2023-04-23T12:13:24.397Z,99833.81
2023-04-23T12:15:54.358Z,99828.72
2023-04-23T12:18:21.349Z,99826.97
2023-04-23T12:20:48.345Z,99818.06
2023-04-23T12:23:15.497Z,99815.53
2023-04-23T12:25:42.696Z,99811.50
2023-04-23T12:28:09.630Z,99816.44
2023-04-23T12:30:44.208Z,99801.13
2023-04-23T12:33:12.279Z,99821.19
2023-04-23T12:35:51.887Z,99812.59
2023-04-23T12:38:24.013Z,99810.00
2023-04-23T12:40:52.347Z,99787.13
2023-04-23T12:43:19.334Z,99794.25
2023-04-23T12:45:46.277Z,99789.25
2023-04-23T12:48:13.808Z,99807.88
2023-04-23T12:50:41.319Z,99794.87
2023-04-23T12:53:08.412Z,99794.69
2023-04-23T12:55:35.374Z,99798.22
2023-04-23T12:58:02.305Z,99786.31
2023-04-23T13:00:29.344Z,99788.91
2023-04-23T13:02:57.038Z,99774.84
2023-04-23T13:05:24.382Z,99777.53
2023-04-23T13:07:51.452Z,99779.56
2023-04-23T13:10:18.404Z,99777.03
2023-04-23T13:12:45.579Z,99768.81
2023-04-23T13:15:15.440Z,99770.09
2023-04-23T13:17:42.464Z,99756.94
2023-04-23T13:20:09.797Z,99766.34
2023-04-23T13:22:36.721Z,99759.88
2023-04-23T13:25:04.406Z,99746.91
2023-04-23T13:27:31.333Z,99752.56
2023-04-23T13:29:58.978Z,99748.53
2023-04-23T13:32:27.596Z,99748.19
2023-04-23T13:34:54.602Z,99739.50
2023-04-23T13:37:21.570Z,99737.00
2023-04-23T13:39:49.150Z,99734.31
2023-04-23T13:42:16.217Z,99738.09
2023-04-23T13:44:43.121Z,99725.16
2023-04-23T13:47:10.030Z,99746.44
2023-04-23T13:49:37.078Z,99733.19
2023-04-23T13:52:07.149Z,99733.66
2023-04-23T13:54:35.911Z,99726.72
2023-04-23T13:57:03.312Z,99717.19
2023-04-23T13:59:30.322Z,99718.97
2023-04-23T14:01:57.232Z,99699.31
2023-04-23T14:04:24.529Z,99711.47
2023-04-23T14:06:51.598Z,99704.00
2023-04-23T14:09:19.220Z,99718.47
2023-04-23T14:11:46.220Z,99698.13
2023-04-23T14:14:13.210Z,99698.69
2023-04-23T14:16:40.088Z,99700.81
2023-04-23T14:19:07.257Z,99687.72
2023-04-23T14:21:36.407Z,99683.69
2023-04-23T14:24:10.161Z,99680.66
2023-04-23T14:26:47.856Z,99688.84
2023-04-23T14:29:38.905Z,99677.59
2023-04-23T14:32:06.711Z,99666.41
2023-04-23T14:34:36.830Z,99673.53
2023-04-23T14:37:04.223Z,99676.13
2023-04-23T14:39:31.739Z,99675.63
2023-04-23T14:41:58.685Z,99667.78
2023-04-23T14:44:27.130Z,99669.88
2023-04-23T14:46:54.169Z,99677.06
2023-04-23T14:49:21.800Z,99669.47
2023-04-23T14:51:55.995Z,99671.72
2023-04-23T14:54:23.102Z,99660.34
2023-04-23T14:56:51.256Z,99663.03
2023-04-23T14:59:18.156Z,99658.94
2023-04-23T15:01:45.396Z,99652.59
2023-04-23T15:04:12.527Z,99651.25
2023-04-23T15:06:40.985Z,99653.13
2023-04-23T15:09:07.975Z,99654.94
2023-04-23T15:11:35.137Z,99649.16
2023-04-23T15:14:26.196Z,99648.97
2023-04-23T15:16:53.226Z,99647.84
2023-04-23T15:19:20.274Z,99642.37
2023-04-23T15:21:48.340Z,99646.78
2023-04-23T15:24:16.460Z,99650.78
2023-04-23T15:26:44.368Z,99654.06
2023-04-23T15:29:11.679Z,99644.34
2023-04-23T15:31:38.966Z,99641.72
2023-04-23T15:34:09.445Z,99639.56
2023-04-23T15:36:38.116Z,99639.72
2023-04-23T15:39:05.342Z,99636.00
2023-04-23T15:41:32.323Z,99635.81
2023-04-23T15:44:00.561Z,99629.84
2023-04-23T15:46:27.478Z,99635.81
2023-04-23T15:48:54.399Z,99640.00
2023-04-23T15:51:21.455Z,99627.72
2023-04-23T15:53:48.394Z,99619.63
2023-04-23T15:56:15.411Z,99625.78
2023-04-23T15:58:42.338Z,99622.03
2023-04-23T16:01:10.263Z,99615.50
2023-04-23T16:03:37.917Z,99618.34
2023-04-23T16:06:05.367Z,99607.63
2023-04-23T16:08:32.958Z,99612.97
2023-04-23T16:10:59.995Z,99612.91
2023-04-23T16:13:29.103Z,99601.78
2023-04-23T16:15:56.091Z,99600.91
2023-04-23T16:18:23.059Z,99600.84
2023-04-23T16:20:50.170Z,99598.59
2023-04-23T16:23:17.156Z,99598.78
2023-04-23T16:25:44.941Z,99600.69
2023-04-23T16:28:13.963Z,99608.50
2023-04-23T16:30:41.081Z,99600.00
2023-04-23T16:33:09.753Z,99610.31
2023-04-23T16:35:36.921Z,99594.19
2023-04-23T16:38:03.870Z,99593.41
2023-04-23T16:40:30.833Z,99603.19
2023-04-23T16:42:57.799Z,99605.91
2023-04-23T16:45:24.755Z,99602.38
2023-04-23T16:47:51.767Z,99603.16
2023-04-23T16:50:18.908Z,99603.84
2023-04-23T16:52:45.895Z,99600.69
2023-04-23T16:55:12.851Z,99598.56
2023-04-23T16:57:39.836Z,99596.66
2023-04-23T17:00:08.131Z,99599.97
2023-04-23T17:02:35.559Z,99599.69
2023-04-23T17:05:02.601Z,99597.13
2023-04-23T17:07:29.713Z,99601.53
2023-04-23T17:09:57.023Z,99599.50
2023-04-23T17:12:23.945Z,99608.94
2023-04-23T17:14:51.037Z,99603.81
2023-04-23T17:17:18.008Z,99596.13
2023-04-23T17:19:45.987Z,99595.44
2023-04-23T17:22:12.972Z,99599.47
2023-04-23T17:24:40.611Z,99589.37
2023-04-23T17:27:07.959Z,99592.97
2023-04-23T17:29:34.876Z,99594.22
2023-04-23T17:32:03.063Z,99585.25
2023-04-23T17:34:30.217Z,99587.53
2023-04-23T17:36:57.229Z,99590.72
2023-04-23T17:39:25.740Z,99586.50
2023-04-23T17:41:52.994Z,99576.28
2023-04-23T17:44:19.970Z,99579.13
2023-04-23T17:46:47.017Z,99584.66
2023-04-23T17:49:14.004Z,99580.66
2023-04-23T17:51:41.072Z,99577.25
2023-04-23T17:54:08.032Z,99593.50
2023-04-23T17:56:34.961Z,99589.75
2023-04-23T17:59:02.160Z,99588.13
2023-04-23T18:01:29.277Z,99582.03
2023-04-23T18:03:56.426Z,99584.38
2023-04-23T18:06:23.825Z,99582.50
2023-04-23T18:08:50.857Z,99586.03
2023-04-23T18:11:18.743Z,99584.34
2023-04-23T18:13:45.829Z,99581.97
2023-04-23T18:16:12.836Z,99587.81
2023-04-23T18:18:39.766Z,99590.16
2023-04-23T18:21:06.793Z,99589.97
2023-04-23T18:23:36.103Z,99596.63
2023-04-23T18:26:03.107Z,99596.66
2023-04-23T18:28:30.061Z,99597.41
2023-04-23T18:31:02.707Z,99601.84
2023-04-23T18:33:42.723Z,99610.34
2023-04-23T18:36:29.838Z,99617.00
2023-04-23T18:38:56.920Z,99612.69
2023-04-23T18:41:23.969Z,99618.16
2023-04-23T18:43:50.928Z,99620.47
2023-04-23T18:46:18.083Z,99615.00
2023-04-23T18:49:16.250Z,99616.09
2023-04-23T18:51:51.036Z,99611.44
2023-04-23T18:54:18.034Z,99615.84
2023-04-23T18:56:47.954Z,99614.91
2023-04-23T18:59:15.219Z,99612.56
2023-04-23T19:01:43.547Z,99614.03
2023-04-23T19:04:10.692Z,99622.72
2023-04-23T19:06:38.293Z,99621.44
2023-04-23T19:09:05.412Z,99615.56
2023-04-23T19:11:35.330Z,99620.19
2023-04-23T19:14:02.602Z,99620.75
2023-04-23T19:16:29.823Z,99622.16
2023-04-23T19:18:57.012Z,99626.09
2023-04-23T19:21:23.984Z,99618.88
2023-04-23T19:23:51.998Z,99621.09
2023-04-23T19:26:19.209Z,99621.03
2023-04-23T19:28:46.318Z,99619.19
2023-04-23T19:31:13.357Z,99613.81
2023-04-23T19:33:42.906Z,99613.63
2023-04-23T19:36:10.430Z,99620.78
2023-04-23T19:38:37.756Z,99619.87
2023-04-23T19:41:04.668Z,99616.50
2023-04-23T19:43:31.634Z,99620.22
2023-04-23T19:45:58.784Z,99613.37
2023-04-23T19:48:25.853Z,99613.44
2023-04-23T19:50:52.867Z,99611.59
2023-04-23T19:53:19.855Z,99610.59
2023-04-23T19:55:46.754Z,99606.88
2023-04-23T19:58:13.680Z,99603.25
2023-04-23T20:00:41.750Z,99602.06
2023-04-23T20:03:09.253Z,99597.66
2023-04-23T20:05:36.352Z,99602.28
2023-04-23T20:08:07.125Z,99604.53
2023-04-23T20:10:34.119Z,99599.50
2023-04-23T20:13:01.222Z,99605.41
2023-04-23T20:15:28.628Z,99608.00
2023-04-23T20:17:55.753Z,99605.03
2023-04-23T20:20:22.970Z,99605.50
2023-04-23T20:22:50.691Z,99607.44
2023-04-23T20:25:18.119Z,99599.25
2023-04-23T20:27:45.787Z,99600.59
2023-04-23T20:30:14.223Z,99602.16
2023-04-23T20:32:41.820Z,99604.03
2023-04-23T20:35:09.736Z,99590.63
2023-04-23T20:37:36.674Z,99588.03
2023-04-23T20:40:03.838Z,99589.41
2023-04-23T20:42:30.817Z,99590.06
2023-04-23T20:44:57.962Z,99589.37
2023-04-23T20:47:25.098Z,99590.94
2023-04-23T20:49:52.145Z,99584.09
2023-04-23T20:52:19.101Z,99577.31
2023-04-23T20:54:45.970Z,99570.22
2023-04-23T20:57:12.975Z,99583.75
2023-04-23T20:59:40.083Z,99569.91
2023-04-23T21:02:08.765Z,99574.81
2023-04-23T21:04:35.973Z,99566.75
2023-04-23T21:07:03.161Z,99575.25
2023-04-23T21:09:30.077Z,99572.44
2023-04-23T21:11:57.501Z,99573.13
2023-04-23T21:14:24.409Z,99568.88
2023-04-23T21:16:51.389Z,99564.19
2023-04-23T21:19:18.349Z,99556.00
2023-04-23T21:21:45.537Z,99561.94
2023-04-23T21:24:12.466Z,99558.41
2023-04-23T21:26:39.528Z,99553.69
2023-04-23T21:29:06.459Z,99557.44
2023-04-23T21:31:36.472Z,99554.19
2023-04-23T21:34:03.431Z,99555.34
2023-04-23T21:36:30.309Z,99562.75
2023-04-23T21:38:57.294Z,99560.56
2023-04-23T21:41:24.769Z,99555.62
2023-04-23T21:43:51.759Z,99558.50
2023-04-23T21:46:18.952Z,99560.50
2023-04-23T21:48:49.636Z,99555.03
2023-04-23T21:51:16.501Z,99553.91
2023-04-23T21:53:43.392Z,99543.75
2023-04-23T21:56:10.405Z,99550.87
2023-04-23T21:58:37.424Z,99553.16
2023-04-23T22:01:04.439Z,99553.34
2023-04-23T22:03:37.805Z,99547.44
2023-04-23T22:06:06.128Z,99549.34
2023-04-23T22:08:33.792Z,99541.34
2023-04-23T22:11:00.856Z,99550.50
2023-04-23T22:13:27.772Z,99545.31
2023-04-23T22:15:57.533Z,99541.19
2023-04-23T22:18:24.696Z,99548.50
2023-04-23T22:20:53.168Z,99549.75
2023-04-23T22:23:20.128Z,99543.63
2023-04-23T22:25:47.538Z,99543.59
2023-04-23T22:28:14.731Z,99542.59
2023-04-23T22:30:41.685Z,99537.94
2023-04-23T22:33:08.661Z,99539.09
2023-04-23T22:35:36.450Z,99538.19
2023-04-23T22:38:03.446Z,99530.91
2023-04-23T22:40:30.429Z,99534.66
2023-04-23T22:42:57.336Z,99532.09
2023-04-23T22:45:24.254Z,99526.94
2023-04-23T22:47:51.289Z,99527.94
2023-04-23T22:50:18.262Z,99528.06
2023-04-23T22:52:45.156Z,99517.44
2023-04-23T22:55:12.099Z,99520.03
2023-04-23T22:57:39.014Z,99519.53
2023-04-23T23:00:07.859Z,99515.91
2023-04-23T23:02:34.944Z,99511.13
2023-04-23T23:05:02.276Z,99514.97
2023-04-23T23:07:29.183Z,99510.66
2023-04-23T23:09:56.722Z,99500.78
2023-04-23T23:12:23.645Z,99497.87
2023-04-23T23:14:50.587Z,99497.87
2023-04-23T23:17:17.559Z,99485.13
2023-04-23T23:19:44.833Z,99491.25
2023-04-23T23:22:12.218Z,99481.91
2023-04-23T23:24:39.164Z,99481.63
2023-04-23T23:27:06.140Z,99477.50
2023-04-23T23:29:33.048Z,99479.12
2023-04-23T23:32:00.149Z,99480.59
2023-04-23T23:34:27.032Z,99471.31
2023-04-23T23:36:53.989Z,99482.31
2023-04-23T23:39:20.948Z,99467.03
2023-04-23T23:41:47.931Z,99477.28
2023-04-23T23:44:14.909Z,99468.81
2023-04-23T23:46:42.078Z,99469.97
2023-04-23T23:49:09.246Z,99457.78
2023-04-23T23:51:36.287Z,99455.06
2023-04-23T23:54:03.296Z,99460.22
2023-04-23T23:56:30.209Z,99448.03
2023-04-23T23:58:57.168Z,99450.06
